createdAt,value
2018-03-08T00:01:55.568Z,5.40
2018-03-08T00:04:23.028Z,5.40
2018-03-08T00:06:50.477Z,5.40
2018-03-08T00:09:17.922Z,5.40
2018-03-08T00:11:45.401Z,5.40
2018-03-08T00:14:12.849Z,5.30
2018-03-08T00:16:40.288Z,5.30
2018-03-08T00:19:07.784Z,5.30
2018-03-08T00:21:35.220Z,5.30
2018-03-08T00:24:02.709Z,5.30
2018-03-08T00:26:30.136Z,5.20
2018-03-08T00:28:57.577Z,5.20
2018-03-08T00:31:25.061Z,5.10
2018-03-08T00:33:52.496Z,5.10
2018-03-08T00:36:19.981Z,5.10
2018-03-08T00:38:47.416Z,5.00
2018-03-08T00:41:14.904Z,5.00
2018-03-08T00:43:42.444Z,5.00
2018-03-08T00:46:09.904Z,5.00
2018-03-08T00:48:37.341Z,5.00
2018-03-08T00:51:04.859Z,5.00
2018-03-08T00:53:32.313Z,5.00
2018-03-08T00:55:59.781Z,5.00
2018-03-08T00:58:27.332Z,5.00
2018-03-08T01:00:54.766Z,4.90
2018-03-08T01:03:22.240Z,4.90
2018-03-08T01:05:49.709Z,4.90
2018-03-08T01:08:17.132Z,4.80
2018-03-08T01:10:44.628Z,4.80
2018-03-08T01:13:12.197Z,4.80
2018-03-08T01:15:39.633Z,4.80
2018-03-08T01:18:07.092Z,4.80
2018-03-08T01:20:34.564Z,4.80
2018-03-08T01:23:01.992Z,4.70
2018-03-08T01:25:29.422Z,4.70
2018-03-08T01:27:57.647Z,4.60
2018-03-08T01:30:25.076Z,4.70
2018-03-08T01:32:52.500Z,4.60
2018-03-08T01:35:20.728Z,4.60
2018-03-08T01:37:48.156Z,4.50
2018-03-08T01:40:15.585Z,4.50
2018-03-08T01:42:43.100Z,4.50
2018-03-08T01:45:10.566Z,4.40
2018-03-08T01:47:37.992Z,4.40
2018-03-08T01:50:05.437Z,4.30
2018-03-08T01:52:33.654Z,4.30
2018-03-08T01:55:01.108Z,4.20
2018-03-08T01:57:28.661Z,4.20
2018-03-08T01:59:56.068Z,4.20
2018-03-08T02:02:24.263Z,4.10
2018-03-08T02:04:52.477Z,4.00
2018-03-08T02:07:19.938Z,4.00
2018-03-08T02:09:47.392Z,4.00
2018-03-08T02:12:14.892Z,3.90
2018-03-08T02:14:42.312Z,3.90
2018-03-08T02:17:09.750Z,3.90
2018-03-08T02:19:37.957Z,3.80
2018-03-08T02:22:05.381Z,3.80
2018-03-08T02:24:33.600Z,3.70
2018-03-08T02:27:01.084Z,3.70
2018-03-08T02:29:28.615Z,3.60
2018-03-08T02:31:56.092Z,3.60
2018-03-08T02:34:23.537Z,3.50
2018-03-08T02:36:50.984Z,3.50
2018-03-08T02:39:18.438Z,3.50
2018-03-08T02:41:45.865Z,3.50
2018-03-08T02:44:13.356Z,3.40
2018-03-08T02:46:40.808Z,3.40
2018-03-08T02:49:08.247Z,3.40
2018-03-08T02:51:35.735Z,3.30
2018-03-08T02:54:03.165Z,3.30
2018-03-08T02:56:30.606Z,3.20
2018-03-08T02:58:58.796Z,3.20
2018-03-08T03:01:26.248Z,3.20
2018-03-08T03:03:53.697Z,3.20
2018-03-08T03:06:21.880Z,3.10
2018-03-08T03:08:49.314Z,3.10
2018-03-08T03:11:17.514Z,3.10
2018-03-08T03:13:44.997Z,3.10
2018-03-08T03:16:12.449Z,3.00
2018-03-08T03:18:39.911Z,3.00
2018-03-08T03:21:07.368Z,3.00
2018-03-08T03:23:34.816Z,3.00
2018-03-08T03:26:02.258Z,3.00
2018-03-08T03:28:29.684Z,3.00
2018-03-08T03:30:57.109Z,2.90
2018-03-08T03:33:24.553Z,2.90
2018-03-08T03:35:51.988Z,2.90
2018-03-08T03:38:20.077Z,2.90
2018-03-08T03:40:47.532Z,2.90
2018-03-08T03:43:14.982Z,2.90
2018-03-08T03:45:42.448Z,2.90
2018-03-08T03:48:09.886Z,2.90
2018-03-08T03:50:37.320Z,2.90
2018-03-08T03:53:05.536Z,2.80
2018-03-08T03:55:32.990Z,2.80
2018-03-08T03:58:00.452Z,2.80
2018-03-08T04:00:27.909Z,2.80
2018-03-08T04:02:55.372Z,2.80
2018-03-08T04:05:22.792Z,2.80
2018-03-08T04:07:50.216Z,2.70
2018-03-08T04:10:17.666Z,2.80
2018-03-08T04:12:45.196Z,2.70
2018-03-08T04:15:12.621Z,2.80
2018-03-08T04:17:40.102Z,2.70
2018-03-08T04:20:07.532Z,2.70
2018-03-08T04:22:35.723Z,2.70
2018-03-08T04:25:03.171Z,2.70
2018-03-08T04:27:30.656Z,2.70
2018-03-08T04:29:58.093Z,2.70
2018-03-08T04:32:25.536Z,2.70
2018-03-08T04:34:53.735Z,2.70
2018-03-08T04:37:21.198Z,2.70
2018-03-08T04:39:48.652Z,2.70
2018-03-08T04:42:16.096Z,2.70
2018-03-08T04:44:44.276Z,2.70
2018-03-08T04:47:11.716Z,2.60
2018-03-08T04:49:40.030Z,2.70
2018-03-08T04:52:07.457Z,2.60
2018-03-08T04:54:34.905Z,2.70
2018-03-08T04:57:02.329Z,2.70
2018-03-08T04:59:29.854Z,2.60
2018-03-08T05:01:57.308Z,2.60
2018-03-08T05:04:24.780Z,2.60
2018-03-08T05:06:52.230Z,2.60
2018-03-08T05:09:19.690Z,2.60
2018-03-08T05:11:47.146Z,2.60
2018-03-08T05:14:14.652Z,2.60
2018-03-08T05:16:42.864Z,2.60
2018-03-08T05:19:10.294Z,2.50
2018-03-08T05:21:38.507Z,2.50
2018-03-08T05:24:05.951Z,2.50
2018-03-08T05:26:33.428Z,2.50
2018-03-08T05:29:00.881Z,2.50
2018-03-08T05:31:28.332Z,2.40
2018-03-08T05:33:55.772Z,2.40
2018-03-08T05:36:23.247Z,2.40
2018-03-08T05:38:50.704Z,2.40
2018-03-08T05:41:18.161Z,2.40
2018-03-08T05:43:45.612Z,2.40
2018-03-08T05:46:13.058Z,2.40
2018-03-08T05:48:40.490Z,2.30
2018-03-08T05:51:08.806Z,2.30
2018-03-08T05:53:36.268Z,2.30
2018-03-08T05:56:03.706Z,2.30
2018-03-08T05:58:31.129Z,2.30
2018-03-08T06:00:59.355Z,2.20
2018-03-08T06:03:26.776Z,2.20
2018-03-08T06:05:54.988Z,2.10
2018-03-08T06:08:22.433Z,2.10
2018-03-08T06:10:49.862Z,2.20
2018-03-08T06:13:18.083Z,2.10
2018-03-08T06:15:45.538Z,2.10
2018-03-08T06:18:13.832Z,2.10
2018-03-08T06:20:41.295Z,2.10
2018-03-08T06:23:08.820Z,2.10
2018-03-08T06:25:36.283Z,2.10
2018-03-08T06:28:04.524Z,2.10
2018-03-08T06:30:31.981Z,2.10
2018-03-08T06:32:59.409Z,2.10
2018-03-08T06:35:26.840Z,2.20
2018-03-08T06:37:54.287Z,2.30
2018-03-08T06:40:21.708Z,2.30
2018-03-08T06:42:49.156Z,2.40
2018-03-08T06:45:16.572Z,2.40
2018-03-08T06:47:44.765Z,2.50
2018-03-08T06:50:12.256Z,2.60
2018-03-08T06:52:39.697Z,2.60
2018-03-08T06:55:07.120Z,2.60
2018-03-08T06:57:35.447Z,2.70
2018-03-08T07:00:02.891Z,2.70
2018-03-08T07:02:30.314Z,2.70
2018-03-08T07:04:58.524Z,2.80
2018-03-08T07:07:25.963Z,2.80
2018-03-08T07:09:53.493Z,2.80
2018-03-08T07:12:20.883Z,2.80
2018-03-08T07:14:48.324Z,2.80
2018-03-08T07:17:16.517Z,2.80
2018-03-08T07:19:43.990Z,2.80
2018-03-08T07:22:11.432Z,2.90
2018-03-08T07:24:38.852Z,2.90
2018-03-08T07:27:07.088Z,2.90
2018-03-08T07:29:34.678Z,2.90
2018-03-08T07:32:02.105Z,3.00
2018-03-08T07:34:29.552Z,3.10
2018-03-08T07:36:57.007Z,3.10
2018-03-08T07:39:24.428Z,3.20
2018-03-08T07:41:52.635Z,3.40
2018-03-08T07:44:20.072Z,3.40
2018-03-08T07:46:47.504Z,3.50
2018-03-08T07:49:15.704Z,3.60
2018-03-08T07:51:43.174Z,3.60
2018-03-08T07:54:11.366Z,3.70
2018-03-08T07:56:38.827Z,3.70
2018-03-08T07:59:06.281Z,3.90
2018-03-08T08:01:33.704Z,3.90
2018-03-08T08:04:01.128Z,4.00
2018-03-08T08:06:40.464Z,4.10
2018-03-08T08:09:08.673Z,4.10
2018-03-08T08:11:36.110Z,4.30
2018-03-08T08:14:04.313Z,4.50
2018-03-08T08:16:31.740Z,4.50
2018-03-08T08:18:59.964Z,4.60
2018-03-08T08:21:27.389Z,4.60
2018-03-08T08:23:54.816Z,4.70
2018-03-08T08:26:22.245Z,4.80
2018-03-08T08:28:49.693Z,4.80
2018-03-08T08:31:17.250Z,4.90
2018-03-08T08:33:44.676Z,4.90
2018-03-08T08:36:12.170Z,5.00
2018-03-08T08:38:39.593Z,5.00
2018-03-08T08:41:07.082Z,5.10
2018-03-08T08:43:34.581Z,5.10
2018-03-08T08:46:02.016Z,5.20
2018-03-08T08:48:29.553Z,5.30
2018-03-08T08:50:57.009Z,5.30
2018-03-08T08:53:24.560Z,5.40
2018-03-08T08:55:51.969Z,5.50
2018-03-08T08:58:19.412Z,5.60
2018-03-08T09:00:46.838Z,5.70
2018-03-08T09:03:14.298Z,5.70
2018-03-08T09:05:41.742Z,5.70
2018-03-08T09:08:09.164Z,5.70
2018-03-08T09:10:37.360Z,5.70
2018-03-08T09:13:04.795Z,5.70
2018-03-08T09:15:32.993Z,5.70
2018-03-08T09:18:00.438Z,5.70
2018-03-08T09:20:28.632Z,5.70
2018-03-08T09:22:56.076Z,5.70
2018-03-08T09:25:24.274Z,5.90
2018-03-08T09:27:51.726Z,5.90
2018-03-08T09:30:19.144Z,5.90
2018-03-08T09:32:47.358Z,5.80
2018-03-08T09:35:14.839Z,5.80
2018-03-08T09:37:42.265Z,5.80
2018-03-08T09:40:09.733Z,5.90
2018-03-08T09:42:37.173Z,5.90
2018-03-08T09:45:04.656Z,5.90
2018-03-08T09:47:32.086Z,5.90
2018-03-08T09:49:59.567Z,5.80
2018-03-08T09:52:27.000Z,5.80
2018-03-08T09:54:54.431Z,5.80
2018-03-08T09:57:22.663Z,5.80
2018-03-08T09:59:50.084Z,5.70
2018-03-08T10:02:17.565Z,5.80
2018-03-08T10:04:45.000Z,5.80
2018-03-08T10:07:12.444Z,5.80
2018-03-08T10:09:40.642Z,5.80
2018-03-08T10:12:08.080Z,5.80
2018-03-08T10:14:35.515Z,5.90
2018-03-08T10:17:03.745Z,5.90
2018-03-08T10:19:31.184Z,5.90
2018-03-08T10:21:58.649Z,5.90
2018-03-08T10:24:26.076Z,5.90
2018-03-08T10:26:54.297Z,5.80
2018-03-08T10:29:21.752Z,5.80
2018-03-08T10:31:49.180Z,5.80
2018-03-08T10:34:16.658Z,5.70
2018-03-08T10:36:44.125Z,5.70
2018-03-08T10:44:07.308Z,5.70
2018-03-08T10:46:34.744Z,5.70
2018-03-08T10:51:29.652Z,5.80
2018-03-08T10:53:57.076Z,5.80
2018-03-08T10:56:25.283Z,5.80
2018-03-08T10:58:52.712Z,5.70
2018-03-08T11:01:24.709Z,5.80
2018-03-08T11:03:55.081Z,5.80
2018-03-08T11:06:28.344Z,5.80
2018-03-08T11:08:55.809Z,5.80
2018-03-08T11:11:23.247Z,5.70
2018-03-08T11:13:50.717Z,5.80
2018-03-08T11:16:18.156Z,5.80
2018-03-08T11:18:45.604Z,5.80
2018-03-08T11:21:13.084Z,5.80
2018-03-08T11:23:40.520Z,5.80
2018-03-08T11:26:07.950Z,5.90
2018-03-08T11:28:35.468Z,5.90
2018-03-08T11:31:02.928Z,5.90
2018-03-08T11:33:30.352Z,5.90
2018-03-08T11:35:57.837Z,5.90
2018-03-08T11:38:25.290Z,5.90
2018-03-08T11:40:52.725Z,6.00
2018-03-08T11:43:20.213Z,6.00
2018-03-08T11:45:47.674Z,6.10
2018-03-08T11:48:15.097Z,6.20
2018-03-08T11:50:42.527Z,6.20
2018-03-08T11:53:10.036Z,6.20
2018-03-08T11:55:37.473Z,6.30
2018-03-08T11:58:04.948Z,6.30
2018-03-08T12:00:32.399Z,6.20
2018-03-08T12:02:59.821Z,6.20
2018-03-08T12:05:28.020Z,6.20
2018-03-08T12:07:55.452Z,6.10
2018-03-08T12:10:23.650Z,6.10
2018-03-08T12:12:51.145Z,6.10
2018-03-08T12:15:18.708Z,6.10
2018-03-08T12:17:46.141Z,6.10
2018-03-08T12:20:13.564Z,6.10
2018-03-08T12:22:41.870Z,6.10
2018-03-08T12:25:09.282Z,6.10
2018-03-08T12:27:37.465Z,6.10
2018-03-08T12:30:04.920Z,6.10
2018-03-08T12:32:32.345Z,6.20
2018-03-08T12:35:00.533Z,6.20
2018-03-08T12:37:28.012Z,6.20
2018-03-08T12:39:55.443Z,6.20
2018-03-08T12:42:22.865Z,6.20
2018-03-08T12:44:51.105Z,6.20
2018-03-08T12:47:18.549Z,6.10
2018-03-08T12:49:45.961Z,6.20
2018-03-08T12:52:14.179Z,6.20
2018-03-08T12:54:41.585Z,6.10
2018-03-08T12:57:09.780Z,6.10
2018-03-08T12:59:37.990Z,6.10
2018-03-08T13:02:05.474Z,6.10
2018-03-08T13:04:32.884Z,6.10
2018-03-08T13:07:00.316Z,6.10
2018-03-08T13:09:28.542Z,6.30
2018-03-08T13:11:55.968Z,6.30
2018-03-08T13:14:23.448Z,6.40
2018-03-08T13:16:50.909Z,6.40
2018-03-08T13:19:18.317Z,6.40
2018-03-08T13:21:46.545Z,6.50
2018-03-08T13:24:14.033Z,6.50
2018-03-08T13:26:41.556Z,6.60
2018-03-08T13:29:09.016Z,6.70
2018-03-08T13:31:36.423Z,6.80
2018-03-08T13:34:04.608Z,7.00
2018-03-08T13:36:32.828Z,7.10
2018-03-08T13:39:00.272Z,7.10
2018-03-08T13:41:27.728Z,7.20
2018-03-08T13:43:55.145Z,7.40
2018-03-08T13:46:23.356Z,8.00
2018-03-08T13:48:50.761Z,8.00
2018-03-08T13:51:18.277Z,8.20
2018-03-08T13:53:45.700Z,8.20
2018-03-08T13:56:14.006Z,8.30
2018-03-08T13:58:41.467Z,8.30
2018-03-08T14:01:08.897Z,8.30
2018-03-08T14:03:36.392Z,8.30
2018-03-08T14:06:03.837Z,8.30
2018-03-08T14:08:31.343Z,8.30
2018-03-08T14:10:58.752Z,8.30
2018-03-08T14:13:26.213Z,8.20
2018-03-08T14:15:53.636Z,8.20
2018-03-08T14:18:21.064Z,8.10
2018-03-08T14:20:49.308Z,8.10
2018-03-08T14:23:16.754Z,8.10
2018-03-08T14:25:44.219Z,8.10
2018-03-08T14:28:11.632Z,8.30
2018-03-08T14:30:39.844Z,8.70
2018-03-08T14:33:07.264Z,8.60
2018-03-08T14:35:35.576Z,8.60
2018-03-08T14:38:03.034Z,8.60
2018-03-08T14:40:30.500Z,8.50
2018-03-08T14:42:57.948Z,8.40
2018-03-08T14:45:25.406Z,8.30
2018-03-08T14:47:52.822Z,8.10
2018-03-08T14:50:20.244Z,8.10
2018-03-08T14:52:47.781Z,8.00
2018-03-08T14:55:15.213Z,8.00
2018-03-08T14:57:42.655Z,8.20
2018-03-08T15:00:10.891Z,8.70
2018-03-08T15:02:38.269Z,8.70
2018-03-08T15:05:05.780Z,9.00
2018-03-08T15:07:33.204Z,9.30
2018-03-08T15:10:01.417Z,9.70
2018-03-08T15:12:28.872Z,9.70
2018-03-08T15:14:56.292Z,9.60
2018-03-08T15:17:24.480Z,9.50
2018-03-08T15:19:51.960Z,9.50
2018-03-08T15:22:19.635Z,9.30
2018-03-08T15:24:47.108Z,9.10
2018-03-08T15:27:14.607Z,8.90
2018-03-08T15:29:42.804Z,8.70
2018-03-08T15:32:10.914Z,8.70
2018-03-08T15:34:38.360Z,8.70
2018-03-08T15:37:05.804Z,8.70
2018-03-08T15:39:33.234Z,8.60
2018-03-08T15:42:00.715Z,8.50
2018-03-08T15:44:28.169Z,8.40
2018-03-08T15:46:55.592Z,8.40
2018-03-08T15:49:23.910Z,8.40
2018-03-08T15:51:51.336Z,8.40
2018-03-08T15:54:18.846Z,8.30
2018-03-08T15:56:46.279Z,8.20
2018-03-08T15:59:13.736Z,8.20
2018-03-08T16:01:41.198Z,8.10
2018-03-08T16:04:08.649Z,8.10
2018-03-08T16:06:47.894Z,8.00
2018-03-08T16:09:27.299Z,8.00
2018-03-08T16:11:54.724Z,7.90
2018-03-08T16:14:22.949Z,7.80
2018-03-08T16:16:50.433Z,7.70
2018-03-08T16:19:18.062Z,7.70
2018-03-08T16:21:45.476Z,7.70
2018-03-08T16:24:13.678Z,7.60
2018-03-08T16:26:41.101Z,7.60
2018-03-08T16:29:08.645Z,7.60
2018-03-08T16:31:36.085Z,7.50
2018-03-08T16:34:03.523Z,7.50
2018-03-08T16:36:30.940Z,7.50
2018-03-08T16:38:59.164Z,7.50
2018-03-08T16:41:26.622Z,7.50
2018-03-08T16:43:54.078Z,7.50
2018-03-08T16:46:21.500Z,7.50
2018-03-08T16:48:48.993Z,7.50
2018-03-08T16:51:16.451Z,7.40
2018-03-08T16:53:43.906Z,7.40
2018-03-08T16:56:11.326Z,7.40
2018-03-08T16:58:39.518Z,7.30
2018-03-08T17:01:07.004Z,7.30
2018-03-08T17:03:34.443Z,7.30
2018-03-08T17:06:01.863Z,7.30
2018-03-08T17:08:30.102Z,7.20
2018-03-08T17:10:57.744Z,7.20
2018-03-08T17:13:25.246Z,7.20
2018-03-08T17:15:52.669Z,7.20
2018-03-08T17:18:20.106Z,7.10
2018-03-08T17:20:47.588Z,7.10
2018-03-08T17:23:15.134Z,7.10
2018-03-08T17:25:42.553Z,7.00
2018-03-08T17:28:10.763Z,7.00
2018-03-08T17:30:38.209Z,7.00
2018-03-08T17:33:05.667Z,7.00
2018-03-08T17:35:33.076Z,6.80
2018-03-08T17:38:01.310Z,6.30
2018-03-08T17:40:28.746Z,6.20
2018-03-08T17:42:56.227Z,6.10
2018-03-08T17:45:23.645Z,6.00
2018-03-08T17:47:51.848Z,5.90
2018-03-08T17:50:19.273Z,5.80
2018-03-08T17:52:47.588Z,5.80
2018-03-08T17:55:15.049Z,5.80
2018-03-08T17:57:42.493Z,5.80
2018-03-08T18:00:09.952Z,5.80
2018-03-08T18:02:37.372Z,5.80
2018-03-08T18:05:05.596Z,5.80
2018-03-08T18:07:33.054Z,5.80
2018-03-08T18:10:00.478Z,5.80
2018-03-08T18:12:27.896Z,5.80
2018-03-08T18:14:55.336Z,5.80
2018-03-08T18:17:22.773Z,5.80
2018-03-08T18:19:50.202Z,5.80
2018-03-08T18:22:17.783Z,5.80
2018-03-08T18:24:45.184Z,5.80
2018-03-08T18:27:13.424Z,5.70
2018-03-08T18:29:40.876Z,5.70
2018-03-08T18:32:08.341Z,5.70
2018-03-08T18:34:35.801Z,5.70
2018-03-08T18:37:03.252Z,5.70
2018-03-08T18:39:31.456Z,5.70
2018-03-08T18:41:58.837Z,5.70
2018-03-08T18:44:27.039Z,5.70
2018-03-08T18:46:54.460Z,5.70
2018-03-08T18:49:22.656Z,5.80
2018-03-08T18:51:50.858Z,5.70
2018-03-08T18:54:18.287Z,5.70
2018-03-08T18:56:46.475Z,5.90
2018-03-08T18:59:13.906Z,5.80
2018-03-08T19:01:42.149Z,5.90
2018-03-08T19:04:10.398Z,5.90
2018-03-08T19:06:37.812Z,5.90
2018-03-08T19:09:06.006Z,5.90
2018-03-08T19:11:33.426Z,5.90
2018-03-08T19:14:00.953Z,5.90
2018-03-08T19:16:28.408Z,5.90
2018-03-08T19:18:55.878Z,5.90
2018-03-08T19:21:23.302Z,5.90
2018-03-08T19:23:50.724Z,5.90
2018-03-08T19:26:18.145Z,5.90
2018-03-08T19:28:45.713Z,5.90
2018-03-08T19:31:13.148Z,5.90
2018-03-08T19:33:40.579Z,5.90
2018-03-08T19:36:08.085Z,5.90
2018-03-08T19:38:35.504Z,5.90
2018-03-08T19:41:02.932Z,5.90
2018-03-08T19:43:31.164Z,5.80
2018-03-08T19:45:58.591Z,5.80
2018-03-08T19:48:26.068Z,5.90
2018-03-08T19:50:53.609Z,5.80
2018-03-08T19:53:21.113Z,5.80
2018-03-08T19:55:48.547Z,5.80
2018-03-08T19:58:16.004Z,5.80
2018-03-08T20:00:43.450Z,5.80
2018-03-08T20:03:10.920Z,5.80
2018-03-08T20:05:38.361Z,5.80
2018-03-08T20:08:05.795Z,5.70
2018-03-08T20:10:34.098Z,5.70
2018-03-08T20:13:01.516Z,5.70
2018-03-08T20:15:29.708Z,5.60
2018-03-08T20:17:57.195Z,5.60
2018-03-08T20:20:24.642Z,5.50
2018-03-08T20:22:52.108Z,5.50
2018-03-08T20:25:19.550Z,5.40
2018-03-08T20:27:46.980Z,5.30
2018-03-08T20:30:15.177Z,5.30
2018-03-08T20:32:42.653Z,5.20
2018-03-08T20:35:10.097Z,5.20
2018-03-08T20:37:37.558Z,5.20
2018-03-08T20:40:04.969Z,5.10
2018-03-08T20:42:32.485Z,5.10
2018-03-08T20:44:59.931Z,5.10
2018-03-08T20:47:27.398Z,5.10
2018-03-08T20:49:54.844Z,5.00
2018-03-08T20:52:22.308Z,5.00
2018-03-08T20:54:49.744Z,5.00
2018-03-08T20:57:17.185Z,5.00
2018-03-08T20:59:45.408Z,4.90
2018-03-08T21:02:12.837Z,4.90
2018-03-08T21:04:40.325Z,4.90
2018-03-08T21:07:07.866Z,4.90
2018-03-08T21:09:35.326Z,4.90
2018-03-08T21:12:02.786Z,4.90
2018-03-08T21:14:30.191Z,4.80
2018-03-08T21:16:58.393Z,4.80
2018-03-08T21:19:25.820Z,4.80
2018-03-08T21:21:54.145Z,4.80
2018-03-08T21:24:21.610Z,4.70
2018-03-08T21:26:49.068Z,4.70
2018-03-08T21:29:16.531Z,4.70
2018-03-08T21:31:43.971Z,4.70
2018-03-08T21:34:11.413Z,4.70
2018-03-08T21:36:38.837Z,4.60
2018-03-08T21:39:06.268Z,4.60
2018-03-08T21:41:33.705Z,4.60
2018-03-08T21:44:01.171Z,4.60
2018-03-08T21:46:28.592Z,4.60
2018-03-08T21:48:56.081Z,4.60
2018-03-08T21:51:23.516Z,4.60
2018-03-08T21:53:50.944Z,4.60
2018-03-08T21:56:19.159Z,4.60
2018-03-08T21:58:46.595Z,4.60
2018-03-08T22:01:14.180Z,4.60
2018-03-08T22:03:41.651Z,4.60
2018-03-08T22:06:09.076Z,4.60
2018-03-08T22:08:36.576Z,4.60
2018-03-08T22:11:04.121Z,4.60
2018-03-08T22:13:31.575Z,4.50
2018-03-08T22:15:59.040Z,4.50
2018-03-08T22:18:26.485Z,4.50
2018-03-08T22:20:53.901Z,4.50
2018-03-08T22:23:22.216Z,4.50
2018-03-08T22:25:49.679Z,4.50
2018-03-08T22:28:17.085Z,4.50
2018-03-08T22:30:45.306Z,4.50
2018-03-08T22:33:12.761Z,4.40
2018-03-08T22:35:40.226Z,4.40
2018-03-08T22:38:07.699Z,4.40
2018-03-08T22:40:35.128Z,4.40
2018-03-08T22:43:02.622Z,4.40
2018-03-08T22:45:30.017Z,4.30
2018-03-08T22:47:58.233Z,4.40
2018-03-08T22:50:25.660Z,4.40
2018-03-08T22:52:53.090Z,4.40
2018-03-08T22:55:21.329Z,4.40
2018-03-08T22:57:48.784Z,4.40
2018-03-08T23:00:16.206Z,4.40
2018-03-08T23:02:43.640Z,4.30
2018-03-08T23:05:11.832Z,4.30
2018-03-08T23:07:39.256Z,4.30
2018-03-08T23:10:06.772Z,4.20
2018-03-08T23:12:34.261Z,4.30
2018-03-08T23:15:01.688Z,4.30
2018-03-08T23:17:29.135Z,4.20
2018-03-08T23:19:56.601Z,4.20
2018-03-08T23:22:24.060Z,4.20
2018-03-08T23:24:51.615Z,4.20
2018-03-08T23:27:19.067Z,4.20
2018-03-08T23:29:46.503Z,4.20
2018-03-08T23:32:13.996Z,4.20
2018-03-08T23:34:41.420Z,4.20
2018-03-08T23:37:08.849Z,4.20
2018-03-08T23:39:37.076Z,4.10
2018-03-08T23:42:04.545Z,4.10
2018-03-08T23:44:31.989Z,4.20
2018-03-08T23:46:59.476Z,4.20
2018-03-08T23:49:26.905Z,4.20
2018-03-08T23:51:54.367Z,4.20
2018-03-08T23:54:21.824Z,4.10
2018-03-08T23:56:49.281Z,4.10
2018-03-08T23:59:16.737Z,4.10
